AQQ10 IFIS: Internet Flight Information System
logo dgac
Martes 21 de Septiembre del 2021
Buscar por aerodromo o helipuerto
Ingrese nombre de aeródromo, localidad o designador OACI:
METAR del 21-09-2021 a las 10:00 UTC
Para mayor información visite www.meteochile.cl
METAR SCCH 211000Z AUTO 07005KT //// R/////// ///////// 03/// Q1012
Viento: dirección 070 grados, velocidad 5 nudos
Presión: 1012 hPa
METAR del 21-09-2021 a las 09:00 UTC
Para mayor información visite www.meteochile.cl
METAR SCCH 210900Z AUTO 06003KT //// R/////// ///////// 03/// Q1011
Viento: dirección 060 grados, velocidad 3 nudos
Presión: 1011 hPa
METAR del 21-09-2021 a las 08:00 UTC
Para mayor información visite www.meteochile.cl
METAR SCCH 210800Z AUTO 09004KT //// R/////// ///////// 03/03 Q1011
Viento: dirección 090 grados, velocidad 4 nudos
Temperatura: 3 °C
Rocío: 3 °C
Humedad_relativa: 100%
Presión: 1011 hPa
METAR del 21-09-2021 a las 07:00 UTC
Para mayor información visite www.meteochile.cl
METAR SCCH 210700Z AUTO 09003KT //// R/////// ///////// 04/04 Q1012
Viento: dirección 090 grados, velocidad 3 nudos
Temperatura: 4 °C
Rocío: 4 °C
Humedad_relativa: 100%
Presión: 1012 hPa
METAR del 21-09-2021 a las 06:00 UTC
Para mayor información visite www.meteochile.cl
METAR SCCH 210600Z AUTO 00000KT //// R/////// ///////// 06/06 Q1012
Temperatura: 6 °C
Rocío: 6 °C
Humedad_relativa: 100%
Presión: 1012 hPa
METAR del 21-09-2021 a las 05:00 UTC
Para mayor información visite www.meteochile.cl
METAR SCCH 210500Z AUTO VRB02KT //// R/////// NCD 06/06 Q1013
Viento: dirección variable, velocidad 2 nudos
Temperatura: 6 °C
Rocío: 6 °C
Humedad_relativa: 100%
Presión: 1013 hPa
METAR del 21-09-2021 a las 04:00 UTC
Para mayor información visite www.meteochile.cl
METAR SCCH 210400Z AUTO 23007KT //// R/////// NCD 10/06 Q1013
Viento: dirección 230 grados, velocidad 7 nudos
Temperatura: 10 °C
Rocío: 6 °C
Humedad_relativa: 76%
Presión: 1013 hPa
METAR del 21-09-2021 a las 03:00 UTC
Para mayor información visite www.meteochile.cl
METAR SCCH 210300Z AUTO 22009KT //// R/////// NCD 11/07 Q1014
Viento: dirección 220 grados, velocidad 9 nudos
Temperatura: 11 °C
Rocío: 7 °C
Humedad_relativa: 76%
Presión: 1014 hPa
METAR del 21-09-2021 a las 02:00 UTC
Para mayor información visite www.meteochile.cl
METAR SCCH 210200Z AUTO 22009KT //// R/////// NCD 12/07 Q1014
Viento: dirección 220 grados, velocidad 9 nudos
Temperatura: 12 °C
Rocío: 7 °C
Humedad_relativa: 71%
Presión: 1014 hPa
METAR del 21-09-2021 a las 01:00 UTC
Para mayor información visite www.meteochile.cl
METAR SCCH 210100Z AUTO 21008KT //// R/////// NCD 13/07 Q1015
Viento: dirección 210 grados, velocidad 8 nudos
Temperatura: 13 °C
Rocío: 7 °C
Humedad_relativa: 67%
Presión: 1015 hPa